Aviation Digital Data Service (ADDS)

Output produced by METARs form (0630 UTC 02 August 2014)
found at http://aviationweather.gov/adds/metars/
 
KCAR 020520Z 0206/0306 20003KT 5SM BR FEW100 
     FM020800 VRB03KT 1SM BR SCT002 
     FM021200 VRB03KT P6SM FEW060 SCT200 
     FM021700 21007KT P6SM VCSH SCT035 BKN060